sensor_id;sensor_type;location;lat;lon;timestamp;P1;durP1;ratioP1;P2;durP2;ratioP2
24421;SDS011;12600;53.326;-6.298;2024-02-26T00:00:47;23.80;;;12.18;;
24421;SDS011;12600;53.326;-6.298;2024-02-26T00:03:37;26.10;;;12.68;;
24421;SDS011;12600;53.326;-6.298;2024-02-26T00:06:29;17.90;;;8.52;;
24421;SDS011;12600;53.326;-6.298;2024-02-26T00:09:19;23.65;;;12.32;;
24421;SDS011;12600;53.326;-6.298;2024-02-26T00:12:09;29.00;;;12.90;;
24421;SDS011;12600;53.326;-6.298;2024-02-26T00:15:01;26.38;;;13.27;;
24421;SDS011;12600;53.326;-6.298;2024-02-26T00:17:50;29.27;;;12.80;;
24421;SDS011;12600;53.326;-6.298;2024-02-26T00:20:40;30.48;;;12.68;;
24421;SDS011;12600;53.326;-6.298;2024-02-26T00:23:30;31.70;;;12.65;;
24421;SDS011;12600;53.326;-6.298;2024-02-26T00:26:20;26.17;;;13.38;;
24421;SDS011;12600;53.326;-6.298;2024-02-26T00:29:09;25.33;;;12.43;;
24421;SDS011;12600;53.326;-6.298;2024-02-26T00:32:00;32.05;;;13.48;;
24421;SDS011;12600;53.326;-6.298;2024-02-26T00:34:50;31.73;;;13.27;;
24421;SDS011;12600;53.326;-6.298;2024-02-26T00:37:39;23.70;;;12.88;;
24421;SDS011;12600;53.326;-6.298;2024-02-26T00:40:30;28.65;;;13.20;;
24421;SDS011;12600;53.326;-6.298;2024-02-26T00:43:19;25.08;;;12.32;;
24421;SDS011;12600;53.326;-6.298;2024-02-26T00:46:09;19.85;;;9.48;;
24421;SDS011;12600;53.326;-6.298;2024-02-26T00:49:00;21.83;;;10.75;;
24421;SDS011;12600;53.326;-6.298;2024-02-26T00:51:50;28.60;;;12.25;;
24421;SDS011;12600;53.326;-6.298;2024-02-26T00:54:39;25.88;;;12.02;;
24421;SDS011;12600;53.326;-6.298;2024-02-26T00:57:29;29.40;;;13.77;;
24421;SDS011;12600;53.326;-6.298;2024-02-26T01:00:18;36.70;;;14.00;;
24421;SDS011;12600;53.326;-6.298;2024-02-26T01:03:08;29.25;;;14.45;;
24421;SDS011;12600;53.326;-6.298;2024-02-26T01:05:59;26.35;;;12.30;;
24421;SDS011;12600;53.326;-6.298;2024-02-26T01:08:49;31.48;;;14.57;;
24421;SDS011;12600;53.326;-6.298;2024-02-26T01:11:39;28.73;;;14.45;;
24421;SDS011;12600;53.326;-6.298;2024-02-26T01:14:28;24.88;;;12.77;;
24421;SDS011;12600;53.326;-6.298;2024-02-26T01:17:18;25.42;;;13.18;;
24421;SDS011;12600;53.326;-6.298;2024-02-26T01:20:07;25.27;;;13.13;;
24421;SDS011;12600;53.326;-6.298;2024-02-26T01:22:59;31.20;;;15.00;;
24421;SDS011;12600;53.326;-6.298;2024-02-26T01:25:48;36.97;;;14.38;;
24421;SDS011;12600;53.326;-6.298;2024-02-26T01:28:38;27.92;;;12.80;;
24421;SDS011;12600;53.326;-6.298;2024-02-26T01:31:28;28.13;;;14.07;;
24421;SDS011;12600;53.326;-6.298;2024-02-26T01:34:17;23.80;;;11.80;;
24421;SDS011;12600;53.326;-6.298;2024-02-26T01:37:07;25.20;;;14.18;;
24421;SDS011;12600;53.326;-6.298;2024-02-26T01:39:58;24.88;;;11.75;;
24421;SDS011;12600;53.326;-6.298;2024-02-26T01:42:52;30.83;;;14.10;;
24421;SDS011;12600;53.326;-6.298;2024-02-26T01:45:42;28.20;;;14.13;;
24421;SDS011;12600;53.326;-6.298;2024-02-26T01:48:31;29.20;;;12.82;;
24421;SDS011;12600;53.326;-6.298;2024-02-26T01:51:21;25.45;;;13.55;;
24421;SDS011;12600;53.326;-6.298;2024-02-26T01:54:11;20.13;;;10.18;;
24421;SDS011;12600;53.326;-6.298;2024-02-26T01:57:02;25.83;;;12.60;;
24421;SDS011;12600;53.326;-6.298;2024-02-26T01:59:54;25.55;;;12.77;;
24421;SDS011;12600;53.326;-6.298;2024-02-26T02:02:44;27.77;;;13.30;;
24421;SDS011;12600;53.326;-6.298;2024-02-26T02:05:35;29.67;;;13.43;;
24421;SDS011;12600;53.326;-6.298;2024-02-26T02:08:29;25.25;;;12.38;;
24421;SDS011;12600;53.326;-6.298;2024-02-26T02:11:19;31.25;;;13.88;;
24421;SDS011;12600;53.326;-6.298;2024-02-26T02:14:09;25.42;;;12.50;;
24421;SDS011;12600;53.326;-6.298;2024-02-26T02:16:59;26.17;;;11.98;;
24421;SDS011;12600;53.326;-6.298;2024-02-26T02:19:49;26.90;;;12.18;;
24421;SDS011;12600;53.326;-6.298;2024-02-26T02:22:40;25.25;;;12.55;;
24421;SDS011;12600;53.326;-6.298;2024-02-26T02:25:29;17.63;;;8.90;;
24421;SDS011;12600;53.326;-6.298;2024-02-26T02:28:19;21.75;;;12.07;;
24421;SDS011;12600;53.326;-6.298;2024-02-26T02:31:08;22.05;;;11.25;;
24421;SDS011;12600;53.326;-6.298;2024-02-26T02:33:58;20.95;;;10.52;;
24421;SDS011;12600;53.326;-6.298;2024-02-26T02:36:49;21.30;;;11.05;;
24421;SDS011;12600;53.326;-6.298;2024-02-26T02:39:42;24.35;;;12.18;;
24421;SDS011;12600;53.326;-6.298;2024-02-26T02:42:32;23.10;;;11.88;;
24421;SDS011;12600;53.326;-6.298;2024-02-26T02:45:21;23.75;;;11.98;;
24421;SDS011;12600;53.326;-6.298;2024-02-26T02:48:11;22.42;;;11.57;;
24421;SDS011;12600;53.326;-6.298;2024-02-26T02:51:01;21.40;;;9.50;;
24421;SDS011;12600;53.326;-6.298;2024-02-26T02:53:50;23.27;;;11.80;;
24421;SDS011;12600;53.326;-6.298;2024-02-26T02:56:41;24.27;;;12.48;;
24421;SDS011;12600;53.326;-6.298;2024-02-26T02:59:31;24.00;;;11.55;;
24421;SDS011;12600;53.326;-6.298;2024-02-26T03:02:20;21.85;;;10.05;;
24421;SDS011;12600;53.326;-6.298;2024-02-26T03:05:12;20.75;;;11.13;;
24421;SDS011;12600;53.326;-6.298;2024-02-26T03:08:01;22.13;;;11.45;;
24421;SDS011;12600;53.326;-6.298;2024-02-26T03:10:51;20.42;;;10.00;;
24421;SDS011;12600;53.326;-6.298;2024-02-26T03:13:42;20.90;;;11.45;;
24421;SDS011;12600;53.326;-6.298;2024-02-26T03:16:31;22.65;;;10.82;;
24421;SDS011;12600;53.326;-6.298;2024-02-26T03:19:21;23.30;;;11.38;;
24421;SDS011;12600;53.326;-6.298;2024-02-26T03:22:13;23.98;;;11.63;;
24421;SDS011;12600;53.326;-6.298;2024-02-26T03:25:02;20.83;;;10.88;;
24421;SDS011;12600;53.326;-6.298;2024-02-26T03:27:53;21.67;;;10.05;;
24421;SDS011;12600;53.326;-6.298;2024-02-26T03:30:43;21.75;;;11.07;;
24421;SDS011;12600;53.326;-6.298;2024-02-26T03:33:33;22.85;;;10.10;;
24421;SDS011;12600;53.326;-6.298;2024-02-26T03:36:23;23.90;;;11.63;;
24421;SDS011;12600;53.326;-6.298;2024-02-26T03:39:13;23.00;;;10.23;;
24421;SDS011;12600;53.326;-6.298;2024-02-26T03:42:03;23.52;;;9.70;;
24421;SDS011;12600;53.326;-6.298;2024-02-26T03:44:52;19.77;;;9.57;;
24421;SDS011;12600;53.326;-6.298;2024-02-26T03:47:43;23.75;;;10.48;;
24421;SDS011;12600;53.326;-6.298;2024-02-26T03:50:33;24.67;;;10.30;;
24421;SDS011;12600;53.326;-6.298;2024-02-26T03:53:22;17.52;;;9.13;;
24421;SDS011;12600;53.326;-6.298;2024-02-26T03:56:12;19.48;;;9.27;;
24421;SDS011;12600;53.326;-6.298;2024-02-26T03:59:01;20.48;;;9.15;;
24421;SDS011;12600;53.326;-6.298;2024-02-26T04:01:51;18.38;;;8.55;;
24421;SDS011;12600;53.326;-6.298;2024-02-26T04:04:41;18.85;;;8.93;;
24421;SDS011;12600;53.326;-6.298;2024-02-26T04:07:31;14.88;;;7.15;;
24421;SDS011;12600;53.326;-6.298;2024-02-26T04:10:20;17.65;;;8.65;;
24421;SDS011;12600;53.326;-6.298;2024-02-26T04:13:09;14.50;;;6.65;;
24421;SDS011;12600;53.326;-6.298;2024-02-26T04:15:59;14.60;;;7.45;;
24421;SDS011;12600;53.326;-6.298;2024-02-26T04:18:50;15.68;;;8.40;;
24421;SDS011;12600;53.326;-6.298;2024-02-26T04:21:42;19.85;;;7.88;;
24421;SDS011;12600;53.326;-6.298;2024-02-26T04:24:32;18.20;;;7.47;;
24421;SDS011;12600;53.326;-6.298;2024-02-26T04:27:21;15.82;;;7.68;;
24421;SDS011;12600;53.326;-6.298;2024-02-26T04:30:11;16.58;;;7.75;;
24421;SDS011;12600;53.326;-6.298;2024-02-26T04:33:01;12.32;;;6.95;;
24421;SDS011;12600;53.326;-6.298;2024-02-26T04:35:50;14.80;;;7.53;;
24421;SDS011;12600;53.326;-6.298;2024-02-26T04:38:41;13.85;;;7.13;;
24421;SDS011;12600;53.326;-6.298;2024-02-26T04:41:30;17.70;;;7.47;;
24421;SDS011;12600;53.326;-6.298;2024-02-26T04:44:20;12.65;;;6.50;;
24421;SDS011;12600;53.326;-6.298;2024-02-26T04:47:09;14.23;;;6.70;;
24421;SDS011;12600;53.326;-6.298;2024-02-26T04:49:59;14.20;;;6.68;;
24421;SDS011;12600;53.326;-6.298;2024-02-26T04:52:48;12.07;;;6.20;;
24421;SDS011;12600;53.326;-6.298;2024-02-26T04:55:39;10.57;;;5.63;;
24421;SDS011;12600;53.326;-6.298;2024-02-26T04:58:28;10.63;;;5.63;;
24421;SDS011;12600;53.326;-6.298;2024-02-26T05:01:18;11.15;;;5.28;;
24421;SDS011;12600;53.326;-6.298;2024-02-26T05:04:08;23.42;;;5.78;;
24421;SDS011;12600;53.326;-6.298;2024-02-26T05:06:58;13.18;;;5.47;;
24421;SDS011;12600;53.326;-6.298;2024-02-26T05:09:48;9.45;;;4.97;;
24421;SDS011;12600;53.326;-6.298;2024-02-26T05:12:39;12.23;;;5.63;;
24421;SDS011;12600;53.326;-6.298;2024-02-26T05:15:29;9.63;;;5.20;;
24421;SDS011;12600;53.326;-6.298;2024-02-26T05:18:19;13.85;;;5.20;;
24421;SDS011;12600;53.326;-6.298;2024-02-26T05:21:09;11.45;;;4.90;;
24421;SDS011;12600;53.326;-6.298;2024-02-26T05:23:58;9.73;;;3.88;;
24421;SDS011;12600;53.326;-6.298;2024-02-26T05:26:48;11.60;;;4.43;;
24421;SDS011;12600;53.326;-6.298;2024-02-26T05:29:39;11.65;;;4.57;;
24421;SDS011;12600;53.326;-6.298;2024-02-26T05:32:28;10.07;;;4.55;;
24421;SDS011;12600;53.326;-6.298;2024-02-26T05:35:18;10.52;;;3.55;;
24421;SDS011;12600;53.326;-6.298;2024-02-26T05:38:07;9.77;;;4.85;;
24421;SDS011;12600;53.326;-6.298;2024-02-26T05:40:57;10.68;;;4.47;;
24421;SDS011;12600;53.326;-6.298;2024-02-26T05:43:46;6.80;;;3.55;;
24421;SDS011;12600;53.326;-6.298;2024-02-26T05:46:37;8.98;;;3.45;;
24421;SDS011;12600;53.326;-6.298;2024-02-26T05:49:27;8.23;;;3.67;;
24421;SDS011;12600;53.326;-6.298;2024-02-26T05:52:17;10.10;;;3.75;;
24421;SDS011;12600;53.326;-6.298;2024-02-26T05:55:06;7.65;;;3.47;;
24421;SDS011;12600;53.326;-6.298;2024-02-26T05:57:57;6.80;;;3.17;;
24421;SDS011;12600;53.326;-6.298;2024-02-26T06:00:46;8.05;;;3.67;;
24421;SDS011;12600;53.326;-6.298;2024-02-26T06:03:37;9.02;;;3.50;;
24421;SDS011;12600;53.326;-6.298;2024-02-26T06:06:26;7.93;;;3.28;;
24421;SDS011;12600;53.326;-6.298;2024-02-26T06:09:16;9.25;;;3.15;;
24421;SDS011;12600;53.326;-6.298;2024-02-26T06:12:06;6.55;;;3.40;;
24421;SDS011;12600;53.326;-6.298;2024-02-26T06:14:56;5.28;;;3.20;;
24421;SDS011;12600;53.326;-6.298;2024-02-26T06:17:49;9.20;;;3.80;;
24421;SDS011;12600;53.326;-6.298;2024-02-26T06:20:40;5.45;;;3.00;;
24421;SDS011;12600;53.326;-6.298;2024-02-26T06:23:30;7.32;;;3.47;;
24421;SDS011;12600;53.326;-6.298;2024-02-26T06:26:19;8.88;;;3.75;;
24421;SDS011;12600;53.326;-6.298;2024-02-26T06:29:08;8.32;;;3.47;;
24421;SDS011;12600;53.326;-6.298;2024-02-26T06:31:58;12.13;;;3.50;;
24421;SDS011;12600;53.326;-6.298;2024-02-26T06:34:47;10.70;;;3.65;;
24421;SDS011;12600;53.326;-6.298;2024-02-26T06:37:38;9.00;;;3.72;;
24421;SDS011;12600;53.326;-6.298;2024-02-26T06:40:27;8.07;;;3.10;;
24421;SDS011;12600;53.326;-6.298;2024-02-26T06:43:17;10.15;;;3.70;;
24421;SDS011;12600;53.326;-6.298;2024-02-26T06:46:06;10.32;;;3.20;;
24421;SDS011;12600;53.326;-6.298;2024-02-26T06:48:56;10.15;;;3.72;;
24421;SDS011;12600;53.326;-6.298;2024-02-26T06:51:45;10.27;;;2.88;;
24421;SDS011;12600;53.326;-6.298;2024-02-26T06:54:36;7.85;;;3.15;;
24421;SDS011;12600;53.326;-6.298;2024-02-26T06:57:26;11.73;;;3.55;;
24421;SDS011;12600;53.326;-6.298;2024-02-26T07:00:16;12.20;;;2.90;;
24421;SDS011;12600;53.326;-6.298;2024-02-26T07:03:06;10.10;;;3.38;;
24421;SDS011;12600;53.326;-6.298;2024-02-26T07:05:55;11.60;;;3.50;;
24421;SDS011;12600;53.326;-6.298;2024-02-26T07:08:45;10.50;;;3.28;;
24421;SDS011;12600;53.326;-6.298;2024-02-26T07:11:36;7.40;;;2.97;;
24421;SDS011;12600;53.326;-6.298;2024-02-26T07:14:26;10.73;;;2.80;;
24421;SDS011;12600;53.326;-6.298;2024-02-26T07:17:16;6.20;;;2.40;;
24421;SDS011;12600;53.326;-6.298;2024-02-26T07:20:06;10.35;;;2.72;;
24421;SDS011;12600;53.326;-6.298;2024-02-26T07:22:57;7.38;;;2.72;;
24421;SDS011;12600;53.326;-6.298;2024-02-26T07:25:46;6.60;;;2.40;;
24421;SDS011;12600;53.326;-6.298;2024-02-26T07:28:41;7.93;;;2.95;;
24421;SDS011;12600;53.326;-6.298;2024-02-26T07:31:31;7.45;;;2.60;;
24421;SDS011;12600;53.326;-6.298;2024-02-26T07:34:20;7.75;;;2.65;;
24421;SDS011;12600;53.326;-6.298;2024-02-26T07:37:15;9.73;;;2.65;;
24421;SDS011;12600;53.326;-6.298;2024-02-26T07:40:05;9.68;;;2.83;;
24421;SDS011;12600;53.326;-6.298;2024-02-26T07:42:56;9.45;;;3.30;;
24421;SDS011;12600;53.326;-6.298;2024-02-26T07:45:47;8.43;;;3.25;;
24421;SDS011;12600;53.326;-6.298;2024-02-26T07:48:36;6.43;;;1.95;;
24421;SDS011;12600;53.326;-6.298;2024-02-26T07:51:26;11.27;;;2.92;;
24421;SDS011;12600;53.326;-6.298;2024-02-26T07:54:15;7.82;;;2.55;;
24421;SDS011;12600;53.326;-6.298;2024-02-26T07:57:06;8.75;;;2.30;;
24421;SDS011;12600;53.326;-6.298;2024-02-26T07:59:56;8.88;;;2.42;;
24421;SDS011;12600;53.326;-6.298;2024-02-26T08:02:47;5.80;;;2.20;;
24421;SDS011;12600;53.326;-6.298;2024-02-26T08:05:36;9.27;;;3.08;;
24421;SDS011;12600;53.326;-6.298;2024-02-26T08:08:27;7.22;;;2.08;;
24421;SDS011;12600;53.326;-6.298;2024-02-26T08:11:16;11.18;;;2.20;;
24421;SDS011;12600;53.326;-6.298;2024-02-26T08:14:06;6.70;;;2.03;;
24421;SDS011;12600;53.326;-6.298;2024-02-26T08:16:55;12.02;;;2.47;;
24421;SDS011;12600;53.326;-6.298;2024-02-26T08:19:46;5.68;;;1.80;;
24421;SDS011;12600;53.326;-6.298;2024-02-26T08:22:36;11.30;;;1.88;;
24421;SDS011;12600;53.326;-6.298;2024-02-26T08:25:26;6.10;;;1.70;;
24421;SDS011;12600;53.326;-6.298;2024-02-26T08:28:15;9.95;;;1.90;;
24421;SDS011;12600;53.326;-6.298;2024-02-26T08:31:05;6.57;;;2.30;;
24421;SDS011;12600;53.326;-6.298;2024-02-26T08:33:55;6.53;;;2.05;;
24421;SDS011;12600;53.326;-6.298;2024-02-26T08:36:47;10.27;;;2.17;;
24421;SDS011;12600;53.326;-6.298;2024-02-26T08:39:38;9.52;;;2.13;;
24421;SDS011;12600;53.326;-6.298;2024-02-26T08:42:27;7.60;;;1.80;;
24421;SDS011;12600;53.326;-6.298;2024-02-26T08:45:17;15.60;;;2.20;;
24421;SDS011;12600;53.326;-6.298;2024-02-26T08:48:07;12.30;;;1.85;;
24421;SDS011;12600;53.326;-6.298;2024-02-26T08:50:57;7.38;;;1.90;;
24421;SDS011;12600;53.326;-6.298;2024-02-26T08:53:48;8.80;;;2.03;;
24421;SDS011;12600;53.326;-6.298;2024-02-26T08:56:38;4.60;;;1.65;;
24421;SDS011;12600;53.326;-6.298;2024-02-26T08:59:28;7.25;;;1.42;;
24421;SDS011;12600;53.326;-6.298;2024-02-26T09:02:17;21.60;;;3.10;;
24421;SDS011;12600;53.326;-6.298;2024-02-26T09:05:07;7.60;;;1.80;;
24421;SDS011;12600;53.326;-6.298;2024-02-26T09:07:57;7.18;;;2.00;;
24421;SDS011;12600;53.326;-6.298;2024-02-26T09:10:49;9.63;;;1.70;;
24421;SDS011;12600;53.326;-6.298;2024-02-26T09:13:38;10.00;;;1.50;;
24421;SDS011;12600;53.326;-6.298;2024-02-26T09:16:28;11.70;;;2.08;;
24421;SDS011;12600;53.326;-6.298;2024-02-26T09:19:17;6.05;;;1.77;;
24421;SDS011;12600;53.326;-6.298;2024-02-26T09:22:07;15.18;;;2.45;;
24421;SDS011;12600;53.326;-6.298;2024-02-26T09:24:56;12.90;;;2.63;;
24421;SDS011;12600;53.326;-6.298;2024-02-26T09:27:47;12.82;;;1.63;;
24421;SDS011;12600;53.326;-6.298;2024-02-26T09:30:37;8.60;;;1.50;;
24421;SDS011;12600;53.326;-6.298;2024-02-26T09:33:27;13.43;;;2.42;;
24421;SDS011;12600;53.326;-6.298;2024-02-26T09:36:17;8.18;;;1.75;;
24421;SDS011;12600;53.326;-6.298;2024-02-26T09:39:06;6.85;;;1.60;;
24421;SDS011;12600;53.326;-6.298;2024-02-26T09:41:59;7.75;;;1.70;;
24421;SDS011;12600;53.326;-6.298;2024-02-26T09:44:55;10.75;;;1.88;;
24421;SDS011;12600;53.326;-6.298;2024-02-26T09:47:48;7.85;;;1.40;;
24421;SDS011;12600;53.326;-6.298;2024-02-26T09:50:39;8.70;;;1.55;;
24421;SDS011;12600;53.326;-6.298;2024-02-26T09:53:31;6.95;;;1.40;;
24421;SDS011;12600;53.326;-6.298;2024-02-26T09:56:23;6.47;;;1.40;;
24421;SDS011;12600;53.326;-6.298;2024-02-26T09:59:13;5.03;;;1.50;;
24421;SDS011;12600;53.326;-6.298;2024-02-26T10:02:07;6.85;;;1.80;;
24421;SDS011;12600;53.326;-6.298;2024-02-26T10:05:00;10.43;;;2.00;;
24421;SDS011;12600;53.326;-6.298;2024-02-26T10:07:53;6.70;;;1.60;;
24421;SDS011;12600;53.326;-6.298;2024-02-26T10:10:44;7.88;;;2.00;;
24421;SDS011;12600;53.326;-6.298;2024-02-26T10:13:34;2.88;;;1.38;;
24421;SDS011;12600;53.326;-6.298;2024-02-26T10:16:25;4.65;;;1.52;;
24421;SDS011;12600;53.326;-6.298;2024-02-26T10:19:25;3.88;;;1.35;;
24421;SDS011;12600;53.326;-6.298;2024-02-26T10:22:18;3.63;;;1.42;;
24421;SDS011;12600;53.326;-6.298;2024-02-26T10:25:10;8.60;;;1.60;;
24421;SDS011;12600;53.326;-6.298;2024-02-26T10:27:59;3.08;;;1.00;;
24421;SDS011;12600;53.326;-6.298;2024-02-26T10:30:51;8.40;;;1.40;;
24421;SDS011;12600;53.326;-6.298;2024-02-26T10:33:41;8.65;;;1.85;;
24421;SDS011;12600;53.326;-6.298;2024-02-26T10:36:34;5.95;;;1.15;;
24421;SDS011;12600;53.326;-6.298;2024-02-26T10:39:38;3.33;;;1.13;;
24421;SDS011;12600;53.326;-6.298;2024-02-26T10:42:34;9.40;;;2.40;;
24421;SDS011;12600;53.326;-6.298;2024-02-26T10:45:24;6.20;;;1.20;;
24421;SDS011;12600;53.326;-6.298;2024-02-26T10:48:14;5.15;;;1.17;;
24421;SDS011;12600;53.326;-6.298;2024-02-26T10:51:04;7.47;;;1.48;;
24421;SDS011;12600;53.326;-6.298;2024-02-26T10:53:57;4.38;;;1.20;;
24421;SDS011;12600;53.326;-6.298;2024-02-26T10:56:49;7.57;;;1.30;;
24421;SDS011;12600;53.326;-6.298;2024-02-26T10:59:39;6.88;;;1.23;;
24421;SDS011;12600;53.326;-6.298;2024-02-26T11:02:31;3.35;;;1.10;;
24421;SDS011;12600;53.326;-6.298;2024-02-26T11:05:22;3.72;;;0.90;;
24421;SDS011;12600;53.326;-6.298;2024-02-26T11:08:12;2.42;;;0.85;;
24421;SDS011;12600;53.326;-6.298;2024-02-26T11:11:04;4.63;;;1.30;;
24421;SDS011;12600;53.326;-6.298;2024-02-26T11:13:54;7.40;;;1.60;;
24421;SDS011;12600;53.326;-6.298;2024-02-26T11:16:44;3.17;;;1.10;;
24421;SDS011;12600;53.326;-6.298;2024-02-26T11:19:35;3.33;;;1.20;;
24421;SDS011;12600;53.326;-6.298;2024-02-26T11:22:26;4.75;;;1.20;;
24421;SDS011;12600;53.326;-6.298;2024-02-26T11:25:16;8.70;;;2.47;;
24421;SDS011;12600;53.326;-6.298;2024-02-26T11:28:09;4.18;;;1.10;;
24421;SDS011;12600;53.326;-6.298;2024-02-26T11:31:03;8.73;;;3.45;;
24421;SDS011;12600;53.326;-6.298;2024-02-26T11:33:54;5.72;;;1.40;;
24421;SDS011;12600;53.326;-6.298;2024-02-26T11:36:46;6.50;;;1.35;;
24421;SDS011;12600;53.326;-6.298;2024-02-26T11:39:36;4.43;;;0.88;;
24421;SDS011;12600;53.326;-6.298;2024-02-26T11:42:27;14.93;;;1.25;;
24421;SDS011;12600;53.326;-6.298;2024-02-26T11:48:40;6.65;;;1.20;;
24421;SDS011;12600;53.326;-6.298;2024-02-26T11:51:32;3.05;;;0.80;;
24421;SDS011;12600;53.326;-6.298;2024-02-26T11:54:39;2.22;;;0.60;;
24421;SDS011;12600;53.326;-6.298;2024-02-26T11:57:37;4.13;;;0.93;;
24421;SDS011;12600;53.326;-6.298;2024-02-26T12:00:28;4.03;;;1.08;;
24421;SDS011;12600;53.326;-6.298;2024-02-26T12:03:21;5.97;;;1.05;;
24421;SDS011;12600;53.326;-6.298;2024-02-26T12:06:11;3.67;;;0.90;;
24421;SDS011;12600;53.326;-6.298;2024-02-26T12:09:01;6.60;;;1.20;;
24421;SDS011;12600;53.326;-6.298;2024-02-26T12:11:51;2.75;;;0.70;;
24421;SDS011;12600;53.326;-6.298;2024-02-26T12:14:50;2.75;;;1.20;;
24421;SDS011;12600;53.326;-6.298;2024-02-26T12:17:41;2.17;;;0.88;;
24421;SDS011;12600;53.326;-6.298;2024-02-26T12:20:38;4.28;;;0.90;;
24421;SDS011;12600;53.326;-6.298;2024-02-26T12:23:27;5.38;;;1.23;;
24421;SDS011;12600;53.326;-6.298;2024-02-26T12:26:17;3.60;;;0.80;;
24421;SDS011;12600;53.326;-6.298;2024-02-26T12:29:07;5.13;;;0.82;;
24421;SDS011;12600;53.326;-6.298;2024-02-26T12:31:58;17.83;;;1.92;;
24421;SDS011;12600;53.326;-6.298;2024-02-26T12:34:49;1.60;;;0.52;;
24421;SDS011;12600;53.326;-6.298;2024-02-26T12:37:40;3.78;;;0.85;;
24421;SDS011;12600;53.326;-6.298;2024-02-26T12:40:30;5.30;;;1.23;;
24421;SDS011;12600;53.326;-6.298;2024-02-26T12:43:20;6.93;;;1.17;;
24421;SDS011;12600;53.326;-6.298;2024-02-26T12:46:10;7.05;;;1.17;;
24421;SDS011;12600;53.326;-6.298;2024-02-26T12:49:02;2.85;;;1.30;;
24421;SDS011;12600;53.326;-6.298;2024-02-26T12:51:53;2.05;;;0.90;;
24421;SDS011;12600;53.326;-6.298;2024-02-26T12:54:50;2.83;;;1.10;;
24421;SDS011;12600;53.326;-6.298;2024-02-26T12:57:40;2.97;;;0.80;;
24421;SDS011;12600;53.326;-6.298;2024-02-26T13:00:31;4.18;;;1.05;;
24421;SDS011;12600;53.326;-6.298;2024-02-26T13:03:21;5.00;;;1.55;;
24421;SDS011;12600;53.326;-6.298;2024-02-26T13:06:12;3.63;;;1.50;;
24421;SDS011;12600;53.326;-6.298;2024-02-26T13:09:02;5.07;;;1.63;;
24421;SDS011;12600;53.326;-6.298;2024-02-26T13:11:54;2.97;;;1.02;;
24421;SDS011;12600;53.326;-6.298;2024-02-26T13:14:44;9.57;;;1.92;;
24421;SDS011;12600;53.326;-6.298;2024-02-26T13:17:33;4.55;;;1.60;;
24421;SDS011;12600;53.326;-6.298;2024-02-26T13:20:26;4.38;;;1.40;;
24421;SDS011;12600;53.326;-6.298;2024-02-26T13:23:17;4.25;;;1.40;;
24421;SDS011;12600;53.326;-6.298;2024-02-26T13:26:07;4.53;;;1.40;;
24421;SDS011;12600;53.326;-6.298;2024-02-26T13:29:00;4.78;;;2.05;;
24421;SDS011;12600;53.326;-6.298;2024-02-26T13:31:55;3.13;;;1.52;;
24421;SDS011;12600;53.326;-6.298;2024-02-26T13:34:45;10.23;;;1.70;;
24421;SDS011;12600;53.326;-6.298;2024-02-26T13:37:35;13.05;;;2.10;;
24421;SDS011;12600;53.326;-6.298;2024-02-26T13:40:26;15.30;;;2.08;;
24421;SDS011;12600;53.326;-6.298;2024-02-26T13:43:16;5.20;;;2.03;;
24421;SDS011;12600;53.326;-6.298;2024-02-26T13:46:07;4.70;;;1.55;;
24421;SDS011;12600;53.326;-6.298;2024-02-26T13:48:58;8.68;;;2.20;;
24421;SDS011;12600;53.326;-6.298;2024-02-26T13:51:47;3.28;;;1.50;;
24421;SDS011;12600;53.326;-6.298;2024-02-26T13:54:37;4.15;;;1.27;;
24421;SDS011;12600;53.326;-6.298;2024-02-26T13:57:27;12.13;;;1.65;;
24421;SDS011;12600;53.326;-6.298;2024-02-26T14:00:18;5.85;;;1.25;;
24421;SDS011;12600;53.326;-6.298;2024-02-26T14:03:09;11.32;;;2.05;;
24421;SDS011;12600;53.326;-6.298;2024-02-26T14:05:58;4.72;;;1.15;;
24421;SDS011;12600;53.326;-6.298;2024-02-26T14:08:49;17.52;;;2.67;;
24421;SDS011;12600;53.326;-6.298;2024-02-26T14:11:39;4.45;;;1.50;;
24421;SDS011;12600;53.326;-6.298;2024-02-26T14:14:29;12.45;;;1.92;;
24421;SDS011;12600;53.326;-6.298;2024-02-26T14:17:22;7.30;;;1.80;;
24421;SDS011;12600;53.326;-6.298;2024-02-26T14:20:13;5.32;;;1.50;;
24421;SDS011;12600;53.326;-6.298;2024-02-26T14:23:03;3.22;;;1.10;;
24421;SDS011;12600;53.326;-6.298;2024-02-26T14:25:52;6.40;;;1.50;;
24421;SDS011;12600;53.326;-6.298;2024-02-26T14:28:42;10.30;;;2.20;;
24421;SDS011;12600;53.326;-6.298;2024-02-26T14:31:31;7.05;;;1.77;;
24421;SDS011;12600;53.326;-6.298;2024-02-26T14:34:21;5.55;;;1.40;;
24421;SDS011;12600;53.326;-6.298;2024-02-26T14:37:12;11.68;;;1.77;;
24421;SDS011;12600;53.326;-6.298;2024-02-26T14:40:01;7.80;;;2.00;;
24421;SDS011;12600;53.326;-6.298;2024-02-26T14:42:52;21.80;;;4.05;;
24421;SDS011;12600;53.326;-6.298;2024-02-26T14:45:42;8.98;;;2.05;;
24421;SDS011;12600;53.326;-6.298;2024-02-26T14:48:31;4.05;;;1.60;;
24421;SDS011;12600;53.326;-6.298;2024-02-26T14:51:21;5.85;;;1.30;;
24421;SDS011;12600;53.326;-6.298;2024-02-26T14:54:12;10.27;;;1.83;;
24421;SDS011;12600;53.326;-6.298;2024-02-26T14:57:02;9.43;;;2.00;;
24421;SDS011;12600;53.326;-6.298;2024-02-26T14:59:52;9.52;;;1.70;;
24421;SDS011;12600;53.326;-6.298;2024-02-26T15:02:42;4.82;;;1.90;;
24421;SDS011;12600;53.326;-6.298;2024-02-26T15:05:31;5.63;;;1.70;;
24421;SDS011;12600;53.326;-6.298;2024-02-26T15:08:21;7.32;;;1.63;;
24421;SDS011;12600;53.326;-6.298;2024-02-26T15:11:12;4.63;;;1.42;;
24421;SDS011;12600;53.326;-6.298;2024-02-26T15:14:01;3.85;;;1.30;;
24421;SDS011;12600;53.326;-6.298;2024-02-26T15:16:51;6.05;;;1.30;;
24421;SDS011;12600;53.326;-6.298;2024-02-26T15:19:41;5.30;;;1.45;;
24421;SDS011;12600;53.326;-6.298;2024-02-26T15:22:30;5.18;;;1.70;;
24421;SDS011;12600;53.326;-6.298;2024-02-26T15:25:20;3.30;;;1.20;;
24421;SDS011;12600;53.326;-6.298;2024-02-26T15:28:11;8.52;;;2.03;;
24421;SDS011;12600;53.326;-6.298;2024-02-26T15:31:02;5.05;;;1.40;;
24421;SDS011;12600;53.326;-6.298;2024-02-26T15:33:52;6.38;;;1.63;;
24421;SDS011;12600;53.326;-6.298;2024-02-26T15:36:42;5.50;;;1.55;;
24421;SDS011;12600;53.326;-6.298;2024-02-26T15:39:31;7.55;;;1.75;;
24421;SDS011;12600;53.326;-6.298;2024-02-26T15:42:22;5.30;;;1.20;;
24421;SDS011;12600;53.326;-6.298;2024-02-26T15:45:13;7.40;;;2.00;;
24421;SDS011;12600;53.326;-6.298;2024-02-26T15:48:04;8.85;;;3.58;;
24421;SDS011;12600;53.326;-6.298;2024-02-26T15:50:55;10.43;;;2.85;;
24421;SDS011;12600;53.326;-6.298;2024-02-26T15:53:44;8.00;;;2.00;;
24421;SDS011;12600;53.326;-6.298;2024-02-26T15:56:35;11.70;;;3.05;;
24421;SDS011;12600;53.326;-6.298;2024-02-26T15:59:25;10.75;;;3.58;;
24421;SDS011;12600;53.326;-6.298;2024-02-26T16:02:16;7.15;;;2.55;;
24421;SDS011;12600;53.326;-6.298;2024-02-26T16:05:08;7.60;;;2.00;;
24421;SDS011;12600;53.326;-6.298;2024-02-26T16:08:02;16.25;;;5.75;;
24421;SDS011;12600;53.326;-6.298;2024-02-26T16:10:57;13.57;;;5.22;;
24421;SDS011;12600;53.326;-6.298;2024-02-26T16:13:47;8.80;;;4.28;;
24421;SDS011;12600;53.326;-6.298;2024-02-26T16:16:45;16.15;;;5.20;;
24421;SDS011;12600;53.326;-6.298;2024-02-26T16:19:42;8.40;;;2.85;;
24421;SDS011;12600;53.326;-6.298;2024-02-26T16:22:32;7.55;;;2.70;;
24421;SDS011;12600;53.326;-6.298;2024-02-26T16:25:23;8.77;;;2.25;;
24421;SDS011;12600;53.326;-6.298;2024-02-26T16:28:14;6.97;;;2.20;;
24421;SDS011;12600;53.326;-6.298;2024-02-26T16:31:03;8.18;;;2.25;;
24421;SDS011;12600;53.326;-6.298;2024-02-26T16:33:53;7.28;;;2.33;;
24421;SDS011;12600;53.326;-6.298;2024-02-26T16:36:44;7.35;;;1.92;;
24421;SDS011;12600;53.326;-6.298;2024-02-26T16:39:35;7.57;;;2.38;;
24421;SDS011;12600;53.326;-6.298;2024-02-26T16:42:25;7.37;;;1.80;;
24421;SDS011;12600;53.326;-6.298;2024-02-26T16:45:16;10.75;;;2.67;;